sensor_id;sensor_type;location;lat;lon;timestamp;pressure;altitude;pressure_sealevel;temperature;humidity
818;BME280;391;51.052;6.954;2023-03-16T00:01:11;101290.28;;;4.49;66.29
818;BME280;391;51.052;6.954;2023-03-16T00:03:14;101291.88;;;4.47;67.29
818;BME280;391;51.052;6.954;2023-03-16T00:05:20;101281.53;;;4.47;66.93
818;BME280;391;51.052;6.954;2023-03-16T00:07:27;101287.94;;;4.39;67.05
818;BME280;391;51.052;6.954;2023-03-16T00:09:31;101289.41;;;4.48;66.77
818;BME280;391;51.052;6.954;2023-03-16T00:11:34;101289.22;;;4.45;66.72
818;BME280;391;51.052;6.954;2023-03-16T00:13:37;101288.31;;;4.45;66.81
818;BME280;391;51.052;6.954;2023-03-16T00:15:48;101294.19;;;4.42;67.47
818;BME280;391;51.052;6.954;2023-03-16T00:17:52;101284.66;;;4.41;66.86
818;BME280;391;51.052;6.954;2023-03-16T00:19:56;101166.38;;;3.65;66.40
818;BME280;391;51.052;6.954;2023-03-16T00:21:59;101273.75;;;4.32;67.50
818;BME280;391;51.052;6.954;2023-03-16T00:24:03;101186.47;;;3.84;67.34
818;BME280;391;51.052;6.954;2023-03-16T00:26:08;101267.19;;;4.37;66.87
818;BME280;391;51.052;6.954;2023-03-16T00:28:14;101268.00;;;4.36;67.01
818;BME280;391;51.052;6.954;2023-03-16T00:30:17;101270.59;;;4.36;67.32
818;BME280;391;51.052;6.954;2023-03-16T00:32:25;101251.44;;;4.33;68.18
818;BME280;391;51.052;6.954;2023-03-16T00:34:29;101262.72;;;4.35;67.25
818;BME280;391;51.052;6.954;2023-03-16T00:36:35;101262.16;;;4.25;67.62
818;BME280;391;51.052;6.954;2023-03-16T00:38:40;101259.69;;;4.27;67.28
818;BME280;391;51.052;6.954;2023-03-16T00:40:46;101252.03;;;4.28;67.94
818;BME280;391;51.052;6.954;2023-03-16T00:42:52;101260.78;;;4.31;67.27
818;BME280;391;51.052;6.954;2023-03-16T00:44:57;101260.25;;;4.36;68.02
818;BME280;391;51.052;6.954;2023-03-16T00:47:01;101261.22;;;4.38;67.25
818;BME280;391;51.052;6.954;2023-03-16T00:49:06;101259.34;;;4.36;67.71
818;BME280;391;51.052;6.954;2023-03-16T00:51:12;101220.13;;;4.13;67.29
818;BME280;391;51.052;6.954;2023-03-16T00:53:17;101268.53;;;4.31;67.81
818;BME280;391;51.052;6.954;2023-03-16T00:55:20;101263.97;;;4.26;67.08
818;BME280;391;51.052;6.954;2023-03-16T00:57:24;101272.22;;;4.21;67.83
818;BME280;391;51.052;6.954;2023-03-16T00:59:29;101256.63;;;4.19;68.39
818;BME280;391;51.052;6.954;2023-03-16T01:01:33;101206.50;;;3.88;68.03
818;BME280;391;51.052;6.954;2023-03-16T01:03:38;101240.16;;;4.17;67.93
818;BME280;391;51.052;6.954;2023-03-16T01:05:43;101263.38;;;4.31;68.29
818;BME280;391;51.052;6.954;2023-03-16T01:07:47;101267.09;;;4.36;67.45
818;BME280;391;51.052;6.954;2023-03-16T01:09:50;101265.22;;;4.33;67.96
818;BME280;391;51.052;6.954;2023-03-16T01:11:54;101258.81;;;4.26;67.75
818;BME280;391;51.052;6.954;2023-03-16T01:13:57;101264.75;;;4.25;67.30
818;BME280;391;51.052;6.954;2023-03-16T01:16:01;101264.97;;;4.15;67.87
818;BME280;391;51.052;6.954;2023-03-16T01:18:05;101252.06;;;4.15;67.85
818;BME280;391;51.052;6.954;2023-03-16T01:20:10;101241.56;;;4.12;68.19
818;BME280;391;51.052;6.954;2023-03-16T01:22:18;101238.06;;;4.12;68.56
818;BME280;391;51.052;6.954;2023-03-16T01:24:22;101238.19;;;4.13;67.94
818;BME280;391;51.052;6.954;2023-03-16T01:26:26;101136.75;;;3.59;68.34
818;BME280;391;51.052;6.954;2023-03-16T01:28:31;101128.66;;;3.40;68.42
818;BME280;391;51.052;6.954;2023-03-16T01:30:36;101219.94;;;4.10;68.63
818;BME280;391;51.052;6.954;2023-03-16T01:32:40;101222.34;;;4.07;68.14
818;BME280;391;51.052;6.954;2023-03-16T01:34:46;101212.41;;;4.00;68.84
818;BME280;391;51.052;6.954;2023-03-16T01:36:51;101221.91;;;4.14;68.37
818;BME280;391;51.052;6.954;2023-03-16T01:39:34;101220.47;;;4.05;69.30
818;BME280;391;51.052;6.954;2023-03-16T01:41:39;101227.31;;;4.04;68.69
818;BME280;391;51.052;6.954;2023-03-16T01:43:43;101217.16;;;4.07;68.52
818;BME280;391;51.052;6.954;2023-03-16T01:46:17;101221.53;;;4.08;68.49
818;BME280;391;51.052;6.954;2023-03-16T01:48:25;101211.91;;;4.06;68.82
818;BME280;391;51.052;6.954;2023-03-16T01:50:30;101198.22;;;4.07;68.55
818;BME280;391;51.052;6.954;2023-03-16T01:52:35;101186.81;;;4.03;68.64
818;BME280;391;51.052;6.954;2023-03-16T01:54:44;101199.19;;;4.09;68.45
818;BME280;391;51.052;6.954;2023-03-16T01:56:53;101088.69;;;3.46;68.41
818;BME280;391;51.052;6.954;2023-03-16T01:59:00;101186.88;;;4.18;68.57
818;BME280;391;51.052;6.954;2023-03-16T02:01:04;101179.94;;;4.17;68.85
818;BME280;391;51.052;6.954;2023-03-16T02:03:10;101180.44;;;4.11;67.48
818;BME280;391;51.052;6.954;2023-03-16T02:05:24;101186.41;;;4.10;68.40
818;BME280;391;51.052;6.954;2023-03-16T02:07:33;101179.38;;;4.08;67.92
818;BME280;391;51.052;6.954;2023-03-16T02:09:40;101172.53;;;4.08;68.08
818;BME280;391;51.052;6.954;2023-03-16T02:11:48;101170.31;;;4.14;67.73
818;BME280;391;51.052;6.954;2023-03-16T02:13:53;101187.13;;;4.08;68.22
818;BME280;391;51.052;6.954;2023-03-16T02:16:00;101179.81;;;4.15;67.97
818;BME280;391;51.052;6.954;2023-03-16T02:18:06;101176.44;;;4.16;67.76
818;BME280;391;51.052;6.954;2023-03-16T02:20:19;101171.84;;;4.25;67.83
818;BME280;391;51.052;6.954;2023-03-16T02:22:26;101174.16;;;4.21;67.76
818;BME280;391;51.052;6.954;2023-03-16T02:24:31;101169.69;;;4.18;67.32
818;BME280;391;51.052;6.954;2023-03-16T02:26:42;101177.94;;;4.13;67.41
818;BME280;391;51.052;6.954;2023-03-16T02:29:02;101162.84;;;4.19;67.30
818;BME280;391;51.052;6.954;2023-03-16T02:31:14;101153.03;;;4.13;66.64
818;BME280;391;51.052;6.954;2023-03-16T02:33:19;101151.25;;;4.12;67.96
818;BME280;391;51.052;6.954;2023-03-16T02:35:24;101139.19;;;4.11;67.79
818;BME280;391;51.052;6.954;2023-03-16T02:37:28;101147.59;;;4.09;67.86
818;BME280;391;51.052;6.954;2023-03-16T02:39:34;101151.38;;;4.14;67.49
818;BME280;391;51.052;6.954;2023-03-16T02:41:38;101149.94;;;4.19;67.58
818;BME280;391;51.052;6.954;2023-03-16T02:43:46;101146.56;;;4.20;67.38
818;BME280;391;51.052;6.954;2023-03-16T02:46:00;101023.09;;;3.41;67.34
818;BME280;391;51.052;6.954;2023-03-16T02:48:11;101017.31;;;3.45;67.33
818;BME280;391;51.052;6.954;2023-03-16T02:50:17;101139.34;;;4.14;67.17
818;BME280;391;51.052;6.954;2023-03-16T02:52:21;101133.50;;;4.17;67.19
818;BME280;391;51.052;6.954;2023-03-16T02:54:24;101014.84;;;3.47;66.67
818;BME280;391;51.052;6.954;2023-03-16T02:56:28;101138.47;;;4.14;67.64
818;BME280;391;51.052;6.954;2023-03-16T02:58:31;101026.06;;;3.47;67.11
818;BME280;391;51.052;6.954;2023-03-16T03:00:39;101125.63;;;4.15;66.82
818;BME280;391;51.052;6.954;2023-03-16T03:02:43;101007.47;;;3.38;67.02
818;BME280;391;51.052;6.954;2023-03-16T03:04:48;101124.47;;;4.10;67.35
818;BME280;391;51.052;6.954;2023-03-16T03:06:57;101123.78;;;4.13;67.33
818;BME280;391;51.052;6.954;2023-03-16T03:09:10;101122.63;;;4.08;66.35
818;BME280;391;51.052;6.954;2023-03-16T03:11:15;101127.66;;;4.06;66.92
818;BME280;391;51.052;6.954;2023-03-16T03:13:20;101123.09;;;4.02;67.46
818;BME280;391;51.052;6.954;2023-03-16T03:15:25;101121.84;;;3.96;67.29
818;BME280;391;51.052;6.954;2023-03-16T03:17:36;101118.59;;;3.98;68.14
818;BME280;391;51.052;6.954;2023-03-16T03:19:40;101118.66;;;4.00;67.06
818;BME280;391;51.052;6.954;2023-03-16T03:21:45;101114.41;;;4.00;67.88
818;BME280;391;51.052;6.954;2023-03-16T03:23:49;101107.75;;;4.04;67.48
818;BME280;391;51.052;6.954;2023-03-16T03:25:56;101102.47;;;4.02;67.31
818;BME280;391;51.052;6.954;2023-03-16T03:28:02;101104.25;;;4.03;67.38
818;BME280;391;51.052;6.954;2023-03-16T03:30:08;101100.91;;;4.04;67.16
818;BME280;391;51.052;6.954;2023-03-16T03:32:12;101116.19;;;4.01;67.15
818;BME280;391;51.052;6.954;2023-03-16T03:34:15;101113.63;;;4.01;67.48
818;BME280;391;51.052;6.954;2023-03-16T03:36:19;101116.63;;;4.09;66.59
818;BME280;391;51.052;6.954;2023-03-16T03:38:25;101127.31;;;4.15;67.56
818;BME280;391;51.052;6.954;2023-03-16T03:40:29;101122.75;;;4.24;66.52
818;BME280;391;51.052;6.954;2023-03-16T03:42:37;101133.75;;;4.21;66.60
818;BME280;391;51.052;6.954;2023-03-16T03:44:40;101104.03;;;4.13;66.38
818;BME280;391;51.052;6.954;2023-03-16T03:46:44;101114.53;;;4.16;66.83
818;BME280;391;51.052;6.954;2023-03-16T03:48:51;101107.94;;;4.07;66.47
818;BME280;391;51.052;6.954;2023-03-16T03:50:54;101119.94;;;4.06;67.17
818;BME280;391;51.052;6.954;2023-03-16T03:53:31;101114.78;;;4.06;66.92
818;BME280;391;51.052;6.954;2023-03-16T03:56:10;101113.38;;;4.11;67.12
818;BME280;391;51.052;6.954;2023-03-16T03:58:13;101107.31;;;4.11;67.60
818;BME280;391;51.052;6.954;2023-03-16T04:00:17;101118.06;;;4.18;66.39
818;BME280;391;51.052;6.954;2023-03-16T04:02:22;101106.50;;;4.12;67.00
818;BME280;391;51.052;6.954;2023-03-16T04:04:28;101104.03;;;4.13;66.90
818;BME280;391;51.052;6.954;2023-03-16T04:06:32;101105.09;;;4.17;66.59
818;BME280;391;51.052;6.954;2023-03-16T04:08:36;101104.22;;;4.16;65.85
818;BME280;391;51.052;6.954;2023-03-16T04:10:43;101104.81;;;4.12;67.07
818;BME280;391;51.052;6.954;2023-03-16T04:12:47;101111.59;;;4.10;67.06
818;BME280;391;51.052;6.954;2023-03-16T04:14:52;101109.72;;;4.08;66.66
818;BME280;391;51.052;6.954;2023-03-16T04:17:00;101127.78;;;4.08;66.97
818;BME280;391;51.052;6.954;2023-03-16T04:19:03;101103.06;;;4.11;67.10
818;BME280;391;51.052;6.954;2023-03-16T04:21:13;101092.25;;;4.04;66.69
818;BME280;391;51.052;6.954;2023-03-16T04:23:21;101082.72;;;4.03;66.20
818;BME280;391;51.052;6.954;2023-03-16T04:25:27;101099.41;;;4.08;67.38
818;BME280;391;51.052;6.954;2023-03-16T04:27:32;101095.22;;;4.10;67.08
818;BME280;391;51.052;6.954;2023-03-16T04:29:39;101086.38;;;4.06;66.76
818;BME280;391;51.052;6.954;2023-03-16T04:31:43;101084.88;;;4.10;66.80
818;BME280;391;51.052;6.954;2023-03-16T04:33:48;101051.41;;;3.82;67.15
818;BME280;391;51.052;6.954;2023-03-16T04:35:52;101077.56;;;4.03;67.55
818;BME280;391;51.052;6.954;2023-03-16T04:37:57;101079.06;;;3.99;66.94
818;BME280;391;51.052;6.954;2023-03-16T04:40:11;101070.47;;;3.99;67.50
818;BME280;391;51.052;6.954;2023-03-16T04:42:24;101066.34;;;4.02;67.53
818;BME280;391;51.052;6.954;2023-03-16T04:44:28;101075.00;;;4.03;67.54
818;BME280;391;51.052;6.954;2023-03-16T04:46:32;101068.34;;;4.06;67.43
818;BME280;391;51.052;6.954;2023-03-16T04:48:40;101054.81;;;4.10;67.09
818;BME280;391;51.052;6.954;2023-03-16T04:50:44;101058.81;;;4.05;67.40
818;BME280;391;51.052;6.954;2023-03-16T04:52:50;101066.28;;;4.01;66.77
818;BME280;391;51.052;6.954;2023-03-16T04:54:55;101066.66;;;4.07;67.84
818;BME280;391;51.052;6.954;2023-03-16T04:56:59;101059.97;;;4.10;67.50
818;BME280;391;51.052;6.954;2023-03-16T04:59:14;101046.19;;;3.95;67.92
818;BME280;391;51.052;6.954;2023-03-16T05:01:40;101060.16;;;3.99;67.85
818;BME280;391;51.052;6.954;2023-03-16T05:03:46;101058.63;;;4.02;67.35
818;BME280;391;51.052;6.954;2023-03-16T05:05:51;101059.44;;;4.01;68.14
818;BME280;391;51.052;6.954;2023-03-16T05:07:56;101060.53;;;4.05;68.05
818;BME280;391;51.052;6.954;2023-03-16T05:10:02;101057.84;;;4.03;67.78
818;BME280;391;51.052;6.954;2023-03-16T05:12:06;101049.56;;;4.09;68.05
818;BME280;391;51.052;6.954;2023-03-16T05:14:10;101057.84;;;4.03;67.68
818;BME280;391;51.052;6.954;2023-03-16T05:16:32;101055.38;;;4.05;68.26
818;BME280;391;51.052;6.954;2023-03-16T05:18:35;101053.03;;;3.95;68.06
818;BME280;391;51.052;6.954;2023-03-16T05:20:39;101056.88;;;4.01;68.32
818;BME280;391;51.052;6.954;2023-03-16T05:22:45;100932.25;;;3.31;68.76
818;BME280;391;51.052;6.954;2023-03-16T05:25:06;101021.53;;;3.86;68.23
818;BME280;391;51.052;6.954;2023-03-16T05:27:10;101061.59;;;4.08;68.46
818;BME280;391;51.052;6.954;2023-03-16T05:29:13;101059.81;;;4.07;67.95
818;BME280;391;51.052;6.954;2023-03-16T05:31:19;101037.19;;;4.03;68.64
818;BME280;391;51.052;6.954;2023-03-16T05:33:28;101049.06;;;4.14;68.64
818;BME280;391;51.052;6.954;2023-03-16T05:35:37;101055.00;;;4.13;68.58
818;BME280;391;51.052;6.954;2023-03-16T05:37:45;101057.59;;;4.13;68.21
818;BME280;391;51.052;6.954;2023-03-16T05:39:52;101033.72;;;4.03;68.50
818;BME280;391;51.052;6.954;2023-03-16T05:41:55;101058.81;;;4.05;68.48
818;BME280;391;51.052;6.954;2023-03-16T05:44:21;101050.47;;;4.09;68.63
818;BME280;391;51.052;6.954;2023-03-16T05:46:43;101051.22;;;3.94;68.98
818;BME280;391;51.052;6.954;2023-03-16T05:48:48;101057.94;;;4.05;68.69
818;BME280;391;51.052;6.954;2023-03-16T05:50:54;101053.56;;;4.04;69.56
818;BME280;391;51.052;6.954;2023-03-16T05:53:02;101061.66;;;4.10;69.05
818;BME280;391;51.052;6.954;2023-03-16T05:55:07;101051.63;;;4.14;69.26
818;BME280;391;51.052;6.954;2023-03-16T05:57:11;101058.72;;;4.18;68.59
818;BME280;391;51.052;6.954;2023-03-16T05:59:17;101054.41;;;4.17;68.36
818;BME280;391;51.052;6.954;2023-03-16T06:01:26;100994.75;;;3.84;68.68
818;BME280;391;51.052;6.954;2023-03-16T06:03:30;101064.06;;;4.21;68.67
818;BME280;391;51.052;6.954;2023-03-16T06:05:37;101067.38;;;4.19;68.55
818;BME280;391;51.052;6.954;2023-03-16T06:07:41;101073.06;;;4.13;68.84
818;BME280;391;51.052;6.954;2023-03-16T06:09:45;101077.25;;;4.26;68.76
818;BME280;391;51.052;6.954;2023-03-16T06:11:50;101067.13;;;4.29;68.45
818;BME280;391;51.052;6.954;2023-03-16T06:13:54;101072.28;;;4.29;68.38
818;BME280;391;51.052;6.954;2023-03-16T06:15:59;101063.41;;;4.24;68.99
818;BME280;391;51.052;6.954;2023-03-16T06:18:02;101062.13;;;4.32;68.16
818;BME280;391;51.052;6.954;2023-03-16T06:20:09;101062.94;;;4.31;68.79
818;BME280;391;51.052;6.954;2023-03-16T06:22:17;101069.97;;;4.34;68.88
818;BME280;391;51.052;6.954;2023-03-16T06:24:21;101061.97;;;4.29;68.65
818;BME280;391;51.052;6.954;2023-03-16T06:26:25;101069.25;;;4.36;69.07
818;BME280;391;51.052;6.954;2023-03-16T06:28:29;100935.78;;;3.60;68.66
818;BME280;391;51.052;6.954;2023-03-16T06:30:33;101062.50;;;4.38;68.83
818;BME280;391;51.052;6.954;2023-03-16T06:32:37;101076.28;;;4.39;68.68
818;BME280;391;51.052;6.954;2023-03-16T06:34:43;101068.09;;;4.46;68.81
818;BME280;391;51.052;6.954;2023-03-16T06:36:46;101070.41;;;4.41;68.70
818;BME280;391;51.052;6.954;2023-03-16T06:38:52;101071.59;;;4.46;68.42
818;BME280;391;51.052;6.954;2023-03-16T06:41:02;101060.72;;;4.52;69.06
818;BME280;391;51.052;6.954;2023-03-16T06:43:08;101061.59;;;4.52;69.16
818;BME280;391;51.052;6.954;2023-03-16T06:45:12;101067.91;;;4.57;68.43
818;BME280;391;51.052;6.954;2023-03-16T06:47:18;101074.09;;;4.59;69.01
818;BME280;391;51.052;6.954;2023-03-16T06:49:21;101061.78;;;4.55;68.43
818;BME280;391;51.052;6.954;2023-03-16T06:51:25;101074.09;;;4.59;69.09
818;BME280;391;51.052;6.954;2023-03-16T06:53:29;101076.72;;;4.61;68.26
818;BME280;391;51.052;6.954;2023-03-16T06:55:34;101073.19;;;4.59;68.03
818;BME280;391;51.052;6.954;2023-03-16T06:57:38;101077.00;;;4.65;68.00
818;BME280;391;51.052;6.954;2023-03-16T06:59:41;101081.28;;;4.65;68.15
818;BME280;391;51.052;6.954;2023-03-16T07:01:45;101076.84;;;4.62;68.30
818;BME280;391;51.052;6.954;2023-03-16T07:03:48;101076.47;;;4.71;68.30
818;BME280;391;51.052;6.954;2023-03-16T07:05:58;101088.66;;;4.73;67.99
818;BME280;391;51.052;6.954;2023-03-16T07:08:01;100962.41;;;4.03;67.97
818;BME280;391;51.052;6.954;2023-03-16T07:10:07;101082.88;;;4.77;68.63
818;BME280;391;51.052;6.954;2023-03-16T07:12:13;101080.63;;;4.84;68.75
818;BME280;391;51.052;6.954;2023-03-16T07:14:17;101078.31;;;4.88;67.87
818;BME280;391;51.052;6.954;2023-03-16T07:16:23;101079.19;;;4.89;68.06
818;BME280;391;51.052;6.954;2023-03-16T07:18:27;101086.75;;;4.86;68.26
818;BME280;391;51.052;6.954;2023-03-16T07:20:31;101085.25;;;4.89;68.01
818;BME280;391;51.052;6.954;2023-03-16T07:22:40;101081.88;;;4.90;68.16
818;BME280;391;51.052;6.954;2023-03-16T07:24:46;101090.34;;;4.88;68.31
818;BME280;391;51.052;6.954;2023-03-16T07:26:53;101085.41;;;4.92;68.59
818;BME280;391;51.052;6.954;2023-03-16T07:29:04;101086.84;;;5.02;68.40
818;BME280;391;51.052;6.954;2023-03-16T07:31:09;101035.50;;;4.77;68.40
818;BME280;391;51.052;6.954;2023-03-16T07:33:16;101088.88;;;5.07;67.49
818;BME280;391;51.052;6.954;2023-03-16T07:35:19;101083.91;;;5.10;67.74
818;BME280;391;51.052;6.954;2023-03-16T07:37:24;101087.44;;;5.12;68.17
818;BME280;391;51.052;6.954;2023-03-16T07:39:31;101089.56;;;5.19;68.13
818;BME280;391;51.052;6.954;2023-03-16T07:41:49;101094.00;;;5.22;67.55
818;BME280;391;51.052;6.954;2023-03-16T07:44:07;101089.63;;;5.21;68.06
818;BME280;391;51.052;6.954;2023-03-16T07:46:11;101085.53;;;5.24;67.85
818;BME280;391;51.052;6.954;2023-03-16T07:48:16;101089.34;;;5.31;67.65
818;BME280;391;51.052;6.954;2023-03-16T07:50:27;101063.22;;;5.10;67.62
818;BME280;391;51.052;6.954;2023-03-16T07:52:32;101055.81;;;5.16;67.82
818;BME280;391;51.052;6.954;2023-03-16T07:54:39;101088.78;;;5.37;67.35
818;BME280;391;51.052;6.954;2023-03-16T07:56:45;101094.44;;;5.46;67.57
818;BME280;391;51.052;6.954;2023-03-16T07:59:18;101068.66;;;5.31;67.15
818;BME280;391;51.052;6.954;2023-03-16T08:01:22;101082.97;;;5.41;67.34
818;BME280;391;51.052;6.954;2023-03-16T08:03:27;101061.19;;;5.36;67.31
818;BME280;391;51.052;6.954;2023-03-16T08:05:31;101082.06;;;5.55;67.39
818;BME280;391;51.052;6.954;2023-03-16T08:07:39;100957.09;;;4.91;68.03
818;BME280;391;51.052;6.954;2023-03-16T08:09:47;101066.75;;;5.59;67.70
818;BME280;391;51.052;6.954;2023-03-16T08:11:55;101074.06;;;5.66;67.95
818;BME280;391;51.052;6.954;2023-03-16T08:13:59;101083.81;;;5.72;67.54
818;BME280;391;51.052;6.954;2023-03-16T08:16:25;101079.53;;;5.56;67.15
818;BME280;391;51.052;6.954;2023-03-16T08:18:29;101082.22;;;5.74;67.49
818;BME280;391;51.052;6.954;2023-03-16T08:20:33;101095.31;;;5.77;67.08
818;BME280;391;51.052;6.954;2023-03-16T08:22:37;101090.22;;;5.78;67.15
818;BME280;391;51.052;6.954;2023-03-16T08:24:41;101090.69;;;5.71;67.10
818;BME280;391;51.052;6.954;2023-03-16T08:26:46;101086.50;;;5.73;67.69
818;BME280;391;51.052;6.954;2023-03-16T08:28:50;101082.91;;;5.86;67.22
818;BME280;391;51.052;6.954;2023-03-16T08:30:54;100965.19;;;5.13;66.60
818;BME280;391;51.052;6.954;2023-03-16T08:33:21;101078.34;;;5.82;66.70
818;BME280;391;51.052;6.954;2023-03-16T08:35:26;101077.38;;;5.80;66.43
818;BME280;391;51.052;6.954;2023-03-16T08:37:30;101080.13;;;5.83;66.58
818;BME280;391;51.052;6.954;2023-03-16T08:39:34;101064.06;;;5.89;66.59
818;BME280;391;51.052;6.954;2023-03-16T08:41:42;101068.34;;;6.04;66.68
818;BME280;391;51.052;6.954;2023-03-16T08:43:57;101065.84;;;6.06;65.83
818;BME280;391;51.052;6.954;2023-03-16T08:46:01;101072.22;;;6.12;66.11
818;BME280;391;51.052;6.954;2023-03-16T08:48:15;101056.75;;;6.14;66.42
818;BME280;391;51.052;6.954;2023-03-16T08:50:24;101065.81;;;6.22;65.97
818;BME280;391;51.052;6.954;2023-03-16T08:52:29;100957.09;;;5.72;65.82
818;BME280;391;51.052;6.954;2023-03-16T08:54:32;101059.25;;;6.28;66.04
818;BME280;391;51.052;6.954;2023-03-16T08:56:36;101066.50;;;6.35;65.52
818;BME280;391;51.052;6.954;2023-03-16T08:58:40;101073.16;;;6.30;65.52
818;BME280;391;51.052;6.954;2023-03-16T09:00:46;101074.94;;;6.31;65.27
818;BME280;391;51.052;6.954;2023-03-16T09:02:51;101070.63;;;6.32;65.29
818;BME280;391;51.052;6.954;2023-03-16T09:04:55;101066.50;;;6.35;65.34
818;BME280;391;51.052;6.954;2023-03-16T09:07:01;101058.03;;;6.38;66.16
818;BME280;391;51.052;6.954;2023-03-16T09:09:10;101072.38;;;6.49;66.00
818;BME280;391;51.052;6.954;2023-03-16T09:11:16;101071.28;;;6.62;65.56
818;BME280;391;51.052;6.954;2023-03-16T09:13:19;101067.75;;;6.60;65.18
818;BME280;391;51.052;6.954;2023-03-16T09:15:23;101067.59;;;6.74;65.57
818;BME280;391;51.052;6.954;2023-03-16T09:17:27;101066.66;;;6.72;65.41
818;BME280;391;51.052;6.954;2023-03-16T09:19:31;101071.88;;;6.74;64.89
818;BME280;391;51.052;6.954;2023-03-16T09:21:51;101070.13;;;6.73;65.25
818;BME280;391;51.052;6.954;2023-03-16T09:23:57;101072.19;;;6.80;65.44
818;BME280;391;51.052;6.954;2023-03-16T09:26:01;101062.22;;;6.87;64.87
818;BME280;391;51.052;6.954;2023-03-16T09:28:06;101056.72;;;6.99;64.96
818;BME280;391;51.052;6.954;2023-03-16T09:30:10;101062.38;;;7.08;64.40
818;BME280;391;51.052;6.954;2023-03-16T09:32:14;101064.06;;;7.08;64.64
818;BME280;391;51.052;6.954;2023-03-16T09:34:18;101064.69;;;7.21;64.42
818;BME280;391;51.052;6.954;2023-03-16T09:36:22;101055.66;;;7.31;64.13
818;BME280;391;51.052;6.954;2023-03-16T09:38:25;101060.59;;;7.44;63.94
818;BME280;391;51.052;6.954;2023-03-16T09:40:30;101044.13;;;7.43;63.35
818;BME280;391;51.052;6.954;2023-03-16T09:42:35;101041.97;;;7.53;64.11
818;BME280;391;51.052;6.954;2023-03-16T09:44:50;101045.00;;;7.62;63.82
818;BME280;391;51.052;6.954;2023-03-16T09:46:58;101053.09;;;7.69;63.15
818;BME280;391;51.052;6.954;2023-03-16T09:49:02;101040.75;;;7.64;62.58
818;BME280;391;51.052;6.954;2023-03-16T09:51:11;101035.84;;;7.70;62.60
818;BME280;391;51.052;6.954;2023-03-16T09:53:21;100995.34;;;7.54;62.39
818;BME280;391;51.052;6.954;2023-03-16T09:55:31;101025.03;;;7.61;62.20
818;BME280;391;51.052;6.954;2023-03-16T09:57:38;101034.00;;;7.67;62.36
818;BME280;391;51.052;6.954;2023-03-16T09:59:43;101009.84;;;7.68;62.27
818;BME280;391;51.052;6.954;2023-03-16T10:02:06;101010.59;;;7.66;62.14
818;BME280;391;51.052;6.954;2023-03-16T10:04:23;100927.00;;;7.15;62.04
818;BME280;391;51.052;6.954;2023-03-16T10:06:31;101016.44;;;7.81;61.63
818;BME280;391;51.052;6.954;2023-03-16T10:08:38;101015.00;;;7.87;61.69
818;BME280;391;51.052;6.954;2023-03-16T10:10:56;101009.59;;;7.83;62.05
818;BME280;391;51.052;6.954;2023-03-16T10:13:02;101001.06;;;7.85;62.08
818;BME280;391;51.052;6.954;2023-03-16T10:15:10;101008.25;;;7.91;61.45
818;BME280;391;51.052;6.954;2023-03-16T10:17:17;101029.81;;;7.90;61.49
818;BME280;391;51.052;6.954;2023-03-16T10:19:32;101012.97;;;7.80;62.30
818;BME280;391;51.052;6.954;2023-03-16T10:21:38;101012.84;;;7.77;61.06
818;BME280;391;51.052;6.954;2023-03-16T10:23:43;101012.97;;;7.80;61.31
818;BME280;391;51.052;6.954;2023-03-16T10:25:50;101017.66;;;7.89;61.94
818;BME280;391;51.052;6.954;2023-03-16T10:27:54;101022.53;;;8.01;61.19
818;BME280;391;51.052;6.954;2023-03-16T10:29:58;101012.41;;;8.07;61.32
818;BME280;391;51.052;6.954;2023-03-16T10:32:13;101002.56;;;8.20;60.35
818;BME280;391;51.052;6.954;2023-03-16T10:34:17;101014.69;;;8.20;60.48
818;BME280;391;51.052;6.954;2023-03-16T10:36:24;101005.63;;;8.29;59.95
818;BME280;391;51.052;6.954;2023-03-16T10:38:33;101008.38;;;8.34;59.50
818;BME280;391;51.052;6.954;2023-03-16T10:40:41;101011.66;;;8.30;59.21
818;BME280;391;51.052;6.954;2023-03-16T10:42:47;101008.75;;;8.22;59.01
818;BME280;391;51.052;6.954;2023-03-16T10:44:55;101006.69;;;8.15;58.79
818;BME280;391;51.052;6.954;2023-03-16T10:47:01;101017.75;;;8.30;59.67
818;BME280;391;51.052;6.954;2023-03-16T10:49:18;101009.78;;;8.46;59.03
818;BME280;391;51.052;6.954;2023-03-16T10:51:23;101002.47;;;8.59;58.88
818;BME280;391;51.052;6.954;2023-03-16T10:53:30;100989.66;;;8.84;58.67
818;BME280;391;51.052;6.954;2023-03-16T10:55:41;100988.59;;;9.01;58.61
818;BME280;391;51.052;6.954;2023-03-16T10:57:49;100983.72;;;9.09;57.46
818;BME280;391;51.052;6.954;2023-03-16T10:59:59;100985.47;;;9.10;57.08
818;BME280;391;51.052;6.954;2023-03-16T11:02:14;100877.88;;;8.62;56.73
818;BME280;391;51.052;6.954;2023-03-16T11:04:19;100982.56;;;9.24;56.90
818;BME280;391;51.052;6.954;2023-03-16T11:06:24;100981.63;;;9.22;57.12
818;BME280;391;51.052;6.954;2023-03-16T11:08:33;100967.69;;;9.20;56.92
818;BME280;391;51.052;6.954;2023-03-16T11:10:38;100962.66;;;9.25;56.16
818;BME280;391;51.052;6.954;2023-03-16T11:13:10;100959.06;;;9.21;56.55
818;BME280;391;51.052;6.954;2023-03-16T11:15:15;100954.06;;;9.27;57.06
818;BME280;391;51.052;6.954;2023-03-16T11:17:35;100954.38;;;9.35;56.92
818;BME280;391;51.052;6.954;2023-03-16T11:19:45;100959.50;;;9.33;55.73
818;BME280;391;51.052;6.954;2023-03-16T11:21:56;100864.50;;;8.75;56.29
818;BME280;391;51.052;6.954;2023-03-16T11:24:01;100957.97;;;9.62;56.20
818;BME280;391;51.052;6.954;2023-03-16T11:26:10;100961.63;;;9.92;54.75
818;BME280;391;51.052;6.954;2023-03-16T11:28:25;100952.50;;;10.29;54.14
818;BME280;391;51.052;6.954;2023-03-16T11:30:35;100960.25;;;10.52;53.71
818;BME280;391;51.052;6.954;2023-03-16T11:32:48;100941.75;;;10.72;52.93
818;BME280;391;51.052;6.954;2023-03-16T11:34:54;100938.69;;;10.85;52.82
818;BME280;391;51.052;6.954;2023-03-16T11:37:07;100934.25;;;10.82;52.31
818;BME280;391;51.052;6.954;2023-03-16T11:39:22;100939.16;;;10.72;52.51
818;BME280;391;51.052;6.954;2023-03-16T11:41:36;100911.38;;;10.74;52.39
818;BME280;391;51.052;6.954;2023-03-16T11:43:51;100909.31;;;10.90;52.41
818;BME280;391;51.052;6.954;2023-03-16T11:46:06;100914.16;;;11.08;51.90
818;BME280;391;51.052;6.954;2023-03-16T11:48:23;100907.53;;;10.89;51.49
818;BME280;391;51.052;6.954;2023-03-16T11:50:36;100920.19;;;11.05;51.94
818;BME280;391;51.052;6.954;2023-03-16T11:52:48;100914.56;;;11.22;51.81